EDT,Max TemperatureF,Mean TemperatureF,Min TemperatureF,Max Dew PointF,MeanDew PointF,Min DewpointF,Max Humidity, Mean Humidity, Min Humidity, Max Sea Level PressureIn, Mean Sea Level PressureIn, Min Sea Level PressureIn, Max VisibilityMiles, Mean VisibilityMiles, Min VisibilityMiles, Max Wind SpeedMPH, Mean Wind SpeedMPH, Max Gust SpeedMPH,PrecipitationIn, CloudCover, Events, WindDirDegrees
2012-3-1,64,50,36,57,39,27,100,63,25,29.92,29.82,29.79,10,10,10,17,9,29,0.02,1,Rain-Thunderstorm,271
2012-3-2,47,40,32,45,39,30,100,85,70,30.00,29.90,29.74,10,8,0,10,6,17,0.31,4,Fog-Rain-Thunderstorm,100
2012-3-3,50,44,38,48,36,23,100,68,35,29.78,29.72,29.61,10,9,0,16,7,25,0.16,3,Fog-Rain-Thunderstorm,286
2012-3-4,40,34,28,28,24,18,78,62,45,29.88,29.77,29.71,10,10,7,18,10,25,T,3,Snow,291
2012-3-5,35,30,25,34,28,19,100,80,59,30.36,30.04,29.82,10,7,1,20,9,30,0.13,7,Snow,287
2012-3-6,56,37,18,28,24,21,100,66,32,30.60,30.53,30.44,10,10,10,9,3,,0.00,0,,162
2012-3-7,60,43,26,45,36,25,85,67,48,30.58,30.51,30.43,10,10,10,14,5,23,0.00,0,,205
2012-3-8,62,53,44,54,50,43,100,78,56,30.41,30.28,30.15,10,10,7,16,6,25,0.40,4,Rain,214
2012-3-9,51,43,35,54,35,25,100,71,41,30.27,30.21,30.12,10,10,10,17,11,29,0.01,2,Rain,293
2012-3-10,54,40,25,27,23,19,78,54,29,30.48,30.44,30.37,10,10,7,10,3,17,0.00,0,,237
2012-3-11,63,44,25,34,29,25,78,53,28,30.55,30.48,30.41,10,10,10,9,3,,0.00,0,,191
2012-3-12,67,50,32,54,41,30,100,76,52,30.42,30.34,30.25,10,10,10,13,3,17,0.03,2,Rain,201
2012-3-13,72,59,45,57,52,48,100,71,41,30.24,30.20,30.13,10,10,4,9,3,18,0.00,4,,262
2012-3-14,76,59,42,55,50,45,100,69,38,30.31,30.26,30.22,10,8,0,9,2,16,0.00,0,Fog,272
2012-3-15,58,50,42,57,51,45,100,90,80,30.36,30.30,30.20,10,10,5,12,3,20,0.19,2,Rain-Thunderstorm,258
2012-3-16,69,56,43,59,53,45,100,81,61,30.28,30.23,30.18,10,6,0,8,3,17,0.01,5,Fog-Rain,283
2012-3-17,72,61,49,57,55,52,100,79,57,30.32,30.27,30.24,10,9,5,10,2,,0.60,4,Rain-Thunderstorm,98
2012-3-18,65,58,50,63,58,54,100,94,87,30.37,30.32,30.25,10,6,1,7,2,,T,7,Rain,122
2012-3-19,78,64,49,61,57,52,100,74,47,30.32,30.24,30.17,10,7,0,8,3,,0.00,4,Fog-Thunderstorm,152
2012-3-20,77,64,50,63,58,54,100,75,50,30.31,30.25,30.19,10,10,5,14,2,20,0.08,2,Rain-Thunderstorm,92
2012-3-21,73,60,46,63,57,50,100,81,61,30.36,30.31,30.24,10,7,0,10,4,,0.00,2,Fog-Thunderstorm,106
2012-3-22,78,64,49,63,58,54,100,74,47,30.31,30.26,30.18,10,9,1,10,2,16,0.00,2,,202
2012-3-23,78,64,49,63,57,52,100,71,42,30.21,30.14,30.04,10,8,1,10,3,16,0.17,1,Rain,232
2012-3-24,65,59,53,61,58,48,100,89,78,30.03,29.94,29.83,10,10,4,10,5,20,0.68,6,Rain-Thunderstorm,89
2012-3-25,55,51,46,57,54,50,100,97,93,29.88,29.83,29.79,10,6,1,9,2,,0.31,7,Rain-Thunderstorm,319
2012-3-26,64,53,41,55,49,43,93,62,31,30.06,30.00,29.92,10,10,10,21,11,29,0.00,3,,317
2012-3-27,65,47,29,34,29,19,89,60,31,30.33,30.27,30.20,10,10,10,10,3,23,0.00,0,,310
2012-3-28,76,57,37,55,46,36,83,61,39,30.22,30.05,29.87,10,10,7,18,6,27,0.01,1,Thunderstorm,253
2012-3-29,71,58,45,55,43,37,65,47,29,29.99,29.95,29.91,10,10,10,17,8,25,0.00,0,,291
2012-3-30,73,58,42,59,44,39,83,65,46,30.10,30.03,29.91,10,10,7,9,4,,0.06,2,Rain-Thunderstorm,120
2012-3-31,70,60,49,59,54,48,100,74,47,29.90,29.84,29.79,10,10,7,14,6,20,T,4,Rain,285